Time;durP1;ratioP1;P1;durP2;ratioP2;P2;SDS_P1;SDS_P2;PMS_P1;PMS_P2;Temp;Humidity;BMP_temperature;BMP_pressure;BME280_temperature;BME280_humidity;BME280_pressure;Samples;Min_cycle;Max_cycle;Signal;HPM_P1;HPM_P2
2023/05/12 00:01:41;;;;;;;;;;;;;;;;;;5095494;28;20356;-69
2023/05/12 00:04:07;;;;;;;;;;;;;;;;;;5095191;28;19951;-69
2023/05/12 00:06:33;;;;;;;;;;;;;;;;;;5095387;28;19908;-69
2023/05/12 00:08:59;;;;;;;;;;;;;;;;;;5095669;28;20424;-70
2023/05/12 00:11:25;;;;;;;;;;;;;;;;;;5094974;28;20379;-70
2023/05/12 00:13:51;;;;;;;;;;;;;;;;;;5095187;28;19908;-69
2023/05/12 00:16:17;;;;;;;;;;;;;;;;;;5095215;28;19983;-69
2023/05/12 00:18:43;;;;;;;;;;;;;;;;;;5094666;28;19923;-70
2023/05/12 00:21:11;;;;;;;;;;;;;;;;;;5095109;28;19908;-70
2023/05/12 00:23:37;;;;;;;;;;;;;;;;;;5094644;28;19931;-69
2023/05/12 00:26:03;;;;;;;;;;;;;;;;;;5095593;28;19908;-69
2023/05/12 00:28:29;;;;;;;;;;;;;;;;;;5094928;28;19999;-70
2023/05/12 00:30:55;;;;;;;;;;;;;;;;;;5094534;28;20371;-70
2023/05/12 00:33:21;;;;;;;;;;;;;;;;;;5094849;28;20390;-70
2023/05/12 00:35:47;;;;;;;;;;;;;;;;;;5095006;28;19908;-69
2023/05/12 00:38:13;;;;;;;;;;;;;;;;;;5094195;28;19927;-69
2023/05/12 00:40:39;;;;;;;;;;;;;;;;;;5076573;28;19912;-69
2023/05/12 00:43:05;;;;;;;;;;;;;;;;;;5094634;28;20361;-69
2023/05/12 00:45:31;;;;;;;;;;;;;;;;;;5094266;28;20344;-69
2023/05/12 00:47:56;;;;;;;;;;;;;;;;;;5075971;28;19915;-69
2023/05/12 00:50:23;;;;;;;;;;;;;;;;;;5094807;28;20007;-70
2023/05/12 00:52:48;;;;;;;;;;;;;;;;;;5094289;28;19915;-69
2023/05/12 00:55:15;;;;;;;;;;;;;;;;;;5094521;28;19908;-70
2023/05/12 00:57:41;;;;;;;;;;;;;;;;;;5094410;28;19911;-69
2023/05/12 01:00:06;;;;;;;;;;;;;;;;;;5093956;28;20352;-69
2023/05/12 01:02:32;;;;;;;;;;;;;;;;;;5094348;28;19916;-69
2023/05/12 01:04:58;;;;;;;;;;;;;;;;;;5094720;28;19915;-69
2023/05/12 01:07:24;;;;;;;;;;;;;;;;;;5093945;28;19915;-69
2023/05/12 01:09:50;;;;;;;;;;;;;;;;;;5094315;28;19908;-69
2023/05/12 01:12:16;;;;;;;;;;;;;;;;;;5094370;28;19908;-70
2023/05/12 01:14:42;;;;;;;;;;;;;;;;;;5093779;28;20368;-69
2023/05/12 01:17:08;;;;;;;;;;;;;;;;;;5094150;28;19915;-69
2023/05/12 01:19:34;;;;;;;;;;;;;;;;;;5094136;28;19913;-69
2023/05/12 01:22:00;;;;;;;;;;;;;;;;;;5093640;28;20360;-69
2023/05/12 01:24:26;;;;;;;;;;;;;;;;;;5094342;28;20340;-69
2023/05/12 01:26:52;;;;;;;;;;;;;;;;;;5093641;28;19919;-69
2023/05/12 01:29:18;;;;;;;;;;;;;;;;;;5093992;28;20037;-70
2023/05/12 01:31:44;;;;;;;;;;;;;;;;;;5093982;28;19909;-70
2023/05/12 01:34:10;;;;;;;;;;;;;;;;;;5093583;28;19908;-70
2023/05/12 01:36:36;;;;;;;;;;;;;;;;;;5093852;28;19908;-69
2023/05/12 01:39:02;;;;;;;;;;;;;;;;;;5093631;28;20014;-69
2023/05/12 01:41:28;;;;;;;;;;;;;;;;;;5093626;28;19961;-70
2023/05/12 01:43:54;;;;;;;;;;;;;;;;;;5093889;28;20325;-69
2023/05/12 01:46:20;;;;;;;;;;;;;;;;;;5093831;28;20290;-69
2023/05/12 01:48:46;;;;;;;;;;;;;;;;;;5093433;28;20348;-70
2023/05/12 01:51:12;;;;;;;;;;;;;;;;;;5093794;28;19909;-70
2023/05/12 01:53:37;;;;;;;;;;;;;;;;;;5094039;28;19977;-69
2023/05/12 01:56:03;;;;;;;;;;;;;;;;;;5093622;28;19908;-69
2023/05/12 01:58:29;;;;;;;;;;;;;;;;;;5093554;28;19959;-69
2023/05/12 02:00:55;;;;;;;;;;;;;;;;;;5097789;28;19920;-69
2023/05/12 02:03:21;;;;;;;;;;;;;;;;;;5097386;28;19908;-70
2023/05/12 02:05:47;;;;;;;;;;;;;;;;;;5097747;28;19915;-70
2023/05/12 02:08:13;;;;;;;;;;;;;;;;;;5097949;28;19909;-69
2023/05/12 02:10:39;;;;;;;;;;;;;;;;;;5097226;28;19908;-70
2023/05/12 02:13:05;;;;;;;;;;;;;;;;;;5097612;28;19912;-69
2023/05/12 02:15:31;;;;;;;;;;;;;;;;;;5097565;28;19995;-70
2023/05/12 02:17:58;;;;;;;;;;;;;;;;;;5097006;28;20003;-70
2023/05/12 02:20:24;;;;;;;;;;;;;;;;;;5097493;28;19908;-69
2023/05/12 02:22:50;;;;;;;;;;;;;;;;;;5097667;28;19908;-70
2023/05/12 02:25:15;;;;;;;;;;;;;;;;;;5096950;28;19930;-69
2023/05/12 02:27:43;;;;;;;;;;;;;;;;;;5097307;28;20346;-70
2023/05/12 02:30:09;;;;;;;;;;;;;;;;;;5096880;28;19908;-70
2023/05/12 02:32:35;;;;;;;;;;;;;;;;;;5097276;28;19912;-70
2023/05/12 02:35:01;;;;;;;;;;;;;;;;;;5097220;28;19915;-70
2023/05/12 02:37:27;;;;;;;;;;;;;;;;;;5096487;28;19924;-69
2023/05/12 02:39:53;;;;;;;;;;;;;;;;;;5097114;28;19908;-70
2023/05/12 02:42:19;;;;;;;;;;;;;;;;;;5096993;28;19960;-69
2023/05/12 02:44:46;;;;;;;;;;;;;;;;;;5096594;28;20075;-70
2023/05/12 02:47:11;;;;;;;;;;;;;;;;;;5097021;28;19908;-70
2023/05/12 02:49:37;;;;;;;;;;;;;;;;;;5096896;28;19915;-70
2023/05/12 02:52:03;;;;;;;;;;;;;;;;;;5096393;28;19955;-70
2023/05/12 02:54:30;;;;;;;;;;;;;;;;;;5096815;28;20294;-70
2023/05/12 02:56:57;;;;;;;;;;;;;;;;;;5096708;28;19916;-69
2023/05/12 02:59:22;;;;;;;;;;;;;;;;;;5096329;28;19947;-69
2023/05/12 03:01:48;;;;;;;;;;;;;;;;;;5096686;28;20280;-69
2023/05/12 03:04:15;;;;;;;;;;;;;;;;;;5096591;28;19912;-69
2023/05/12 03:06:41;;;;;;;;;;;;;;;;;;5096211;28;20027;-70
2023/05/12 03:09:07;;;;;;;;;;;;;;;;;;5096499;28;20351;-70
2023/05/12 03:11:33;;;;;;;;;;;;;;;;;;5096021;28;20323;-70
2023/05/12 03:13:59;;;;;;;;;;;;;;;;;;5095956;28;20329;-70
2023/05/12 03:16:25;;;;;;;;;;;;;;;;;;5096441;28;19919;-69
2023/05/12 03:18:51;;;;;;;;;;;;;;;;;;5096256;28;19938;-70
2023/05/12 03:21:17;;;;;;;;;;;;;;;;;;5095843;28;19953;-70
2023/05/12 03:23:43;;;;;;;;;;;;;;;;;;5096217;28;19908;-70
2023/05/12 03:26:08;;;;;;;;;;;;;;;;;;5096252;28;19908;-70
2023/05/12 03:28:34;;;;;;;;;;;;;;;;;;5095662;28;19908;-70
2023/05/12 03:31:00;;;;;;;;;;;;;;;;;;5077963;28;19993;-70
2023/05/12 03:33:26;;;;;;;;;;;;;;;;;;5095653;28;19913;-70
2023/05/12 03:35:52;;;;;;;;;;;;;;;;;;5096015;28;20025;-69
2023/05/12 03:38:18;;;;;;;;;;;;;;;;;;5095832;28;20311;-70
2023/05/12 03:40:45;;;;;;;;;;;;;;;;;;5095545;28;19908;-69
2023/05/12 03:43:11;;;;;;;;;;;;;;;;;;5095861;28;19961;-70
2023/05/12 03:45:37;;;;;;;;;;;;;;;;;;5095788;28;19908;-70
2023/05/12 03:48:03;;;;;;;;;;;;;;;;;;5095425;28;20372;-70
2023/05/12 03:50:29;;;;;;;;;;;;;;;;;;5095746;28;20104;-70
2023/05/12 03:52:55;;;;;;;;;;;;;;;;;;5095688;28;20036;-70
2023/05/12 03:55:21;;;;;;;;;;;;;;;;;;5095186;28;19931;-69
2023/05/12 03:57:48;;;;;;;;;;;;;;;;;;5077360;28;19916;-69
2023/05/12 04:00:14;;;;;;;;;;;;;;;;;;5095439;28;19909;-69
2023/05/12 04:02:40;;;;;;;;;;;;;;;;;;5095063;28;19915;-69
2023/05/12 04:05:07;;;;;;;;;;;;;;;;;;5095444;28;19930;-69
2023/05/12 04:07:33;;;;;;;;;;;;;;;;;;5095362;28;19914;-69
2023/05/12 04:09:58;;;;;;;;;;;;;;;;;;5094863;28;19998;-69
2023/05/12 04:12:24;;;;;;;;;;;;;;;;;;5095197;28;19915;-69
2023/05/12 04:14:50;;;;;;;;;;;;;;;;;;5095492;28;19954;-70
2023/05/12 04:17:18;;;;;;;;;;;;;;;;;;5094792;28;20007;-69
2023/05/12 04:19:43;;;;;;;;;;;;;;;;;;5095137;28;19920;-70
2023/05/12 04:22:09;;;;;;;;;;;;;;;;;;5094155;28;19908;-69
2023/05/12 04:24:35;;;;;;;;;;;;;;;;;;5076476;28;19912;-69
2023/05/12 04:27:01;;;;;;;;;;;;;;;;;;5095094;28;20383;-70
2023/05/12 04:29:28;;;;;;;;;;;;;;;;;;5094570;28;19908;-69
2023/05/12 04:31:54;;;;;;;;;;;;;;;;;;5094517;28;19915;-69
2023/05/12 04:34:20;;;;;;;;;;;;;;;;;;5094805;28;19908;-69
2023/05/12 04:36:46;;;;;;;;;;;;;;;;;;5094229;28;20425;-68
2023/05/12 04:39:12;;;;;;;;;;;;;;;;;;5094716;28;20299;-69
2023/05/12 04:41:38;;;;;;;;;;;;;;;;;;5094104;28;19915;-69
2023/05/12 04:44:04;;;;;;;;;;;;;;;;;;5093421;28;20359;-69
2023/05/12 04:46:30;;;;;;;;;;;;;;;;;;5094864;28;20368;-70
2023/05/12 04:48:56;;;;;;;;;;;;;;;;;;5094637;28;20348;-69
2023/05/12 04:51:22;;;;;;;;;;;;;;;;;;5075888;28;20291;-69
2023/05/12 04:53:48;;;;;;;;;;;;;;;;;;5093282;28;19955;-69
2023/05/12 04:56:14;;;;;;;;;;;;;;;;;;5092378;28;19915;-70
2023/05/12 04:58:40;;;;;;;;;;;;;;;;;;5091892;28;19923;-69
2023/05/12 05:01:06;;;;;;;;;;;;;;;;;;5092807;28;19993;-69
2023/05/12 05:03:32;;;;;;;;;;;;;;;;;;5074511;28;19962;-68
2023/05/12 05:05:58;;;;;;;;;;;;;;;;;;5092248;28;20424;-69
2023/05/12 05:08:24;;;;;;;;;;;;;;;;;;5093340;28;19908;-69
2023/05/12 05:10:50;;;;;;;;;;;;;;;;;;5094211;28;20006;-68
2023/05/12 05:13:16;;;;;;;;;;;;;;;;;;5093800;28;20004;-69
2023/05/12 05:15:42;;;;;;;;;;;;;;;;;;5094104;28;19909;-69
2023/05/12 05:18:08;;;;;;;;;;;;;;;;;;5090418;28;19923;-67
2023/05/12 05:20:34;;;;;;;;;;;;;;;;;;5075205;28;20264;-67
2023/05/12 05:23:00;;;;;;;;;;;;;;;;;;5093692;28;20402;-67
2023/05/12 05:25:26;;;;;;;;;;;;;;;;;;5093186;28;19912;-67
2023/05/12 05:27:52;;;;;;;;;;;;;;;;;;5084942;28;20317;-66
2023/05/12 05:30:18;;;;;;;;;;;;;;;;;;5090879;28;19912;-67
2023/05/12 05:32:44;;;;;;;;;;;;;;;;;;5090252;28;19943;-66
2023/05/12 05:35:10;;;;;;;;;;;;;;;;;;5087243;28;19941;-64
2023/05/12 05:37:36;;;;;;;;;;;;;;;;;;5081812;28;19935;-66
2023/05/12 05:40:02;;;;;;;;;;;;;;;;;;5070177;28;20011;-65
2023/05/12 05:42:28;;;;;;;;;;;;;;;;;;5070757;28;19912;-65
2023/05/12 05:44:55;;;;;;;;;;;;;;;;;;5091102;28;19956;-66
2023/05/12 05:47:21;;;;;;;;;;;;;;;;;;5069429;28;19913;-66
2023/05/12 05:49:47;;;;;;;;;;;;;;;;;;5083982;28;19912;-66
2023/05/12 05:52:13;;;;;;;;;;;;;;;;;;5081480;28;19916;-65
2023/05/12 05:54:39;;;;;;;;;;;;;;;;;;5069195;28;19908;-65
2023/05/12 05:57:04;;;;;;;;;;;;;;;;;;5086118;28;19953;-67
2023/05/12 05:59:31;;;;;;;;;;;;;;;;;;5088181;28;19920;-66
2023/05/12 06:01:57;;;;;;;;;;;;;;;;;;5088850;28;20024;-67
2023/05/12 06:04:22;;;;;;;;;;;;;;;;;;5088977;28;20289;-67
2023/05/12 06:06:48;;;;;;;;;;;;;;;;;;5088915;28;20387;-66
2023/05/12 06:09:15;;;;;;;;;;;;;;;;;;5087006;28;20376;-66
2023/05/12 06:11:41;;;;;;;;;;;;;;;;;;5089516;28;20265;-67
2023/05/12 06:14:08;;;;;;;;;;;;;;;;;;5091231;28;19919;-69
2023/05/12 06:16:36;;;;;;;;;;;;;;;;;;5088822;28;19934;-68
2023/05/12 06:19:02;;;;;;;;;;;;;;;;;;5091714;28;19920;-67
2023/05/12 06:21:29;;;;;;;;;;;;;;;;;;5092054;28;19908;-67
2023/05/12 06:23:55;;;;;;;;;;;;;;;;;;5091271;28;19956;-67
2023/05/12 06:26:21;;;;;;;;;;;;;;;;;;5092205;28;19915;-65
2023/05/12 06:28:47;;;;;;;;;;;;;;;;;;5090131;28;19916;-65
2023/05/12 06:31:13;;;;;;;;;;;;;;;;;;5088983;28;19915;-67
2023/05/12 06:33:39;;;;;;;;;;;;;;;;;;5090518;28;19988;-65
2023/05/12 06:36:05;;;;;;;;;;;;;;;;;;5091098;28;20340;-65
2023/05/12 06:38:31;;;;;;;;;;;;;;;;;;5087589;28;20007;-67
2023/05/12 06:40:57;;;;;;;;;;;;;;;;;;5091984;28;20342;-67
2023/05/12 06:43:23;;;;;;;;;;;;;;;;;;5091734;28;19995;-66
2023/05/12 06:45:49;;;;;;;;;;;;;;;;;;5093538;28;20020;-67
2023/05/12 06:48:15;;;;;;;;;;;;;;;;;;5093334;28;19912;-66
2023/05/12 06:50:42;;;;;;;;;;;;;;;;;;5094898;28;20444;-68
2023/05/12 06:53:08;;;;;;;;;;;;;;;;;;5095464;28;20316;-67
2023/05/12 07:01:45;;;;;;;;;;;;;;;;;;5110459;27;19966;-68
2023/05/12 07:04:11;;;;;;;;;;;;;;;;;;5109760;28;20408;-68
2023/05/12 07:06:37;;;;;;;;;;;;;;;;;;5108939;28;19909;-66
2023/05/12 07:09:03;;;;;;;;;;;;;;;;;;5108210;28;20446;-66
2023/05/12 07:11:29;;;;;;;;;;;;;;;;;;5100904;28;20496;-67
2023/05/12 07:13:55;;;;;;;;;;;;;;;;;;5103985;28;20075;-66
2023/05/12 07:16:21;;;;;;;;;;;;;;;;;;5106575;28;19919;-66
2023/05/12 07:18:47;;;;;;;;;;;;;;;;;;5101128;28;19957;-67
2023/05/12 07:21:13;;;;;;;;;;;;;;;;;;5106362;28;19916;-66
2023/05/12 07:23:39;;;;;;;;;;;;;;;;;;5107396;28;20022;-64
2023/05/12 07:26:05;;;;;;;;;;;;;;;;;;5108095;28;19962;-66
2023/05/12 07:29:29;;;;;;;;;;;;;;;;;;5085471;27;20232;-66
2023/05/12 07:32:11;;;;;;;;;;;;;;;;;;5086435;27;19916;-68
2023/05/12 07:34:37;;;;;;;;;;;;;;;;;;5087950;28;19912;-67
2023/05/12 07:38:35;;;;;;;;;;;;;;;;;;5106400;27;19912;-67
2023/05/12 07:41:43;;;;;;;;;;;;;;;;;;5086663;28;19924;-67
2023/05/12 07:46:37;;;;;;;;;;;;;;;;;;5107958;27;19922;-65
2023/05/12 07:50:37;;;;;;;;;;;;;;;;;;5067443;28;19919;-65
2023/05/12 07:53:03;;;;;;;;;;;;;;;;;;5068343;28;19913;-66
2023/05/12 07:56:07;;;;;;;;;;;;;;;;;;5082573;27;20296;-68
2023/05/12 08:00:58;;;;;;;;;;;;;;;;;;5063277;28;19924;-67
2023/05/12 08:03:24;;;;;;;;;;;;;;;;;;5058106;28;19947;-70
2023/05/12 08:05:50;;;;;;;;;;;;;;;;;;5083114;28;19912;-67
2023/05/12 08:08:16;;;;;;;;;;;;;;;;;;5088260;28;19995;-67
2023/05/12 08:10:42;;;;;;;;;;;;;;;;;;5068612;28;19943;-68
2023/05/12 08:13:08;;;;;;;;;;;;;;;;;;5065668;28;19913;-67
2023/05/12 08:15:34;;;;;;;;;;;;;;;;;;5062527;28;19917;-67
2023/05/12 08:18:00;;;;;;;;;;;;;;;;;;5058109;28;19917;-68
2023/05/12 08:20:26;;;;;;;;;;;;;;;;;;5064895;28;19970;-68
2023/05/12 08:22:52;;;;;;;;;;;;;;;;;;5063789;28;19994;-68
2023/05/12 08:28:30;;;;;;;;;;;;;;;;;;5067276;28;19923;-67
2023/05/12 08:33:00;;;;;;;;;;;;;;;;;;5150609;27;19911;-66
2023/05/12 08:35:26;;;;;;;;;;;;;;;;;;5125801;28;20346;-66
2023/05/12 08:37:52;;;;;;;;;;;;;;;;;;5147640;27;19911;-66
2023/05/12 08:40:18;;;;;;;;;;;;;;;;;;5132216;27;20364;-66
2023/05/12 08:44:31;;;;;;;;;;;;;;;;;;5165784;27;19915;-66
2023/05/12 08:49:03;;;;;;;;;;;;;;;;;;5065052;28;19917;-66
2023/05/12 08:53:48;;;;;;;;;;;;;;;;;;5085954;27;20287;-66
2023/05/12 08:56:14;;;;;;;;;;;;;;;;;;5083707;28;20438;-65
2023/05/12 08:58:40;;;;;;;;;;;;;;;;;;5085763;28;20015;-66
2023/05/12 09:03:43;;;;;;;;;;;;;;;;;;5038557;27;2492369;-65
2023/05/12 09:07:07;;;;;;;;;;;;;;;;;;5084231;27;19913;-64
2023/05/12 09:09:33;;;;;;;;;;;;;;;;;;5083592;28;19923;-67
2023/05/12 09:11:59;;;;;;;;;;;;;;;;;;5083070;28;19962;-65
2023/05/12 09:14:25;;;;;;;;;;;;;;;;;;5084470;28;20448;-65
2023/05/12 09:16:51;;;;;;;;;;;;;;;;;;5085594;28;19985;-65
2023/05/12 09:21:14;;;;;;;;;;;;;;;;;;5088254;28;19920;-64
2023/05/12 09:24:50;;;;;;;;;;;;;;;;;;5130357;27;19912;-64
2023/05/12 09:27:16;;;;;;;;;;;;;;;;;;5125300;28;20157;-66
2023/05/12 09:29:51;;;;;;;;;;;;;;;;;;5078424;27;19920;-68
2023/05/12 09:34:39;;;;;;;;;;;;;;;;;;5081307;27;19920;-66
2023/05/12 09:37:05;;;;;;;;;;;;;;;;;;5082090;28;19943;-68
2023/05/12 09:44:36;;;;;;;;;;;;;;;;;;5083583;27;19916;-66
2023/05/12 09:47:01;;;;;;;;;;;;;;;;;;5076289;28;19913;-66
2023/05/12 09:51:12;;;;;;;;;;;;;;;;;;5080352;27;19927;-66
2023/05/12 09:53:39;;;;;;;;;;;;;;;;;;5078720;28;20050;-68
2023/05/12 09:58:06;;;;;;;;;;;;;;;;;;5134883;27;19926;-66
2023/05/12 10:00:32;;;;;;;;;;;;;;;;;;5121310;28;20363;-67
2023/05/12 10:05:50;;;;;;;;;;;;;;;;;;5148435;27;19934;-65
2023/05/12 10:08:16;;;;;;;;;;;;;;;;;;5132484;27;19915;-67
2023/05/12 10:12:26;;;;;;;;;;;;;;;;;;5088590;27;19912;-66
2023/05/12 10:15:32;;;;;;;;;;;;;;;;;;5086739;27;19951;-66
2023/05/12 10:18:00;;;;;;;;;;;;;;;;;;5088278;28;19913;-66
2023/05/12 10:21:40;;;;;;;;;;;;;;;;;;5090175;27;19928;-67
2023/05/12 10:29:11;;;;;;;;;;;;;;;;;;5087873;27;20265;-64
2023/05/12 10:36:53;;;;;;;;;;;;;;;;;;4765619;27;10261097;-65
2023/05/12 10:39:19;;;;;;;;;;;;;;;;;;5130935;28;20371;-66
2023/05/12 10:44:48;;;;;;;;;;;;;;;;;;5149587;27;19915;-66
2023/05/12 10:47:14;;;;;;;;;;;;;;;;;;5131745;27;19918;-66
2023/05/12 10:51:17;;;;;;;;;;;;;;;;;;5141921;27;19915;-65
2023/05/12 10:53:43;;;;;;;;;;;;;;;;;;5130742;28;19930;-65
2023/05/12 10:58:40;;;;;;;;;;;;;;;;;;5138511;27;19927;-66
2023/05/12 11:01:06;;;;;;;;;;;;;;;;;;5130535;28;19916;-65
2023/05/12 11:03:35;;;;;;;;;;;;;;;;;;5126478;28;19919;-65
2023/05/12 11:07:14;;;;;;;;;;;;;;;;;;5090101;28;19923;-64
2023/05/12 11:11:10;;;;;;;;;;;;;;;;;;5089852;27;19916;-65
2023/05/12 11:13:36;;;;;;;;;;;;;;;;;;5090533;28;19912;-66
2023/05/12 11:16:48;;;;;;;;;;;;;;;;;;5090528;27;19919;-66
2023/05/12 11:23:12;;;;;;;;;;;;;;;;;;5151691;27;20339;-62
2023/05/12 11:26:57;;;;;;;;;;;;;;;;;;5087682;27;20244;-63
2023/05/12 11:32:48;;;;;;;;;;;;;;;;;;5138292;27;20444;-63
2023/05/12 11:38:29;;;;;;;;;;;;;;;;;;5005399;28;19924;-63
2023/05/12 11:41:11;;;;;;;;;;;;;;;;;;5106350;27;19920;-62
2023/05/12 11:49:44;;;;;;;;;;;;;;;;;;5089127;27;19927;-67
2023/05/12 11:52:10;;;;;;;;;;;;;;;;;;5085829;28;19952;-67
2023/05/12 11:54:36;;;;;;;;;;;;;;;;;;5086447;28;19909;-68
2023/05/12 12:03:45;;;;;;;;;;;;;;;;;;5090632;27;19922;-65
2023/05/12 12:08:41;;;;;;;;;;;;;;;;;;5090444;27;20390;-65
2023/05/12 12:11:07;;;;;;;;;;;;;;;;;;5089423;28;20007;-65
2023/05/12 12:15:04;;;;;;;;;;;;;;;;;;5089864;27;20303;-65
2023/05/12 12:20:03;;;;;;;;;;;;;;;;;;5130027;27;19938;-65
2023/05/12 12:22:33;;;;;;;;;;;;;;;;;;5128989;27;19912;-65
2023/05/12 12:30:37;;;;;;;;;;;;;;;;;;5108952;27;20376;-65
2023/05/12 12:35:26;;;;;;;;;;;;;;;;;;5087495;27;19924;-65
2023/05/12 12:37:52;;;;;;;;;;;;;;;;;;5085914;28;20046;-65
2023/05/12 12:44:14;;;;;;;;;;;;;;;;;;5128992;27;19912;-65
2023/05/12 12:48:41;;;;;;;;;;;;;;;;;;5109742;27;19920;-65
2023/05/12 12:51:07;;;;;;;;;;;;;;;;;;5110421;28;19912;-65
2023/05/12 12:53:34;;;;;;;;;;;;;;;;;;5108687;28;19998;-65
2023/05/12 12:56:00;;;;;;;;;;;;;;;;;;5122905;28;20571;-66
2023/05/12 12:58:26;;;;;;;;;;;;;;;;;;5110175;28;19915;-66
2023/05/12 13:00:52;;;;;;;;;;;;;;;;;;5110806;28;20335;-69
2023/05/12 13:03:18;;;;;;;;;;;;;;;;;;5109016;28;19908;-68
2023/05/12 13:05:44;;;;;;;;;;;;;;;;;;5109762;28;19953;-68
2023/05/12 13:08:11;;;;;;;;;;;;;;;;;;5108883;28;19959;-69
2023/05/12 13:10:37;;;;;;;;;;;;;;;;;;5108414;28;19919;-69
2023/05/12 13:13:03;;;;;;;;;;;;;;;;;;5109516;28;19916;-69
2023/05/12 13:15:31;;;;;;;;;;;;;;;;;;5108560;28;19908;-69
2023/05/12 13:17:57;;;;;;;;;;;;;;;;;;5108471;28;20356;-68
2023/05/12 13:20:23;;;;;;;;;;;;;;;;;;5109570;28;19908;-69
2023/05/12 13:22:49;;;;;;;;;;;;;;;;;;5109535;28;19908;-69
2023/05/12 13:25:14;;;;;;;;;;;;;;;;;;5109026;28;19908;-70
2023/05/12 13:27:40;;;;;;;;;;;;;;;;;;5109733;28;19919;-71
2023/05/12 13:30:06;;;;;;;;;;;;;;;;;;5110105;28;20318;-70
2023/05/12 13:32:32;;;;;;;;;;;;;;;;;;5108643;28;19908;-69
2023/05/12 13:34:58;;;;;;;;;;;;;;;;;;5110446;28;19908;-68
2023/05/12 13:37:24;;;;;;;;;;;;;;;;;;5110617;28;20461;-68
2023/05/12 13:39:50;;;;;;;;;;;;;;;;;;5109990;28;20360;-69
2023/05/12 13:42:16;;;;;;;;;;;;;;;;;;5110112;28;20415;-68
2023/05/12 13:44:42;;;;;;;;;;;;;;;;;;5110097;28;20272;-68
2023/05/12 13:47:09;;;;;;;;;;;;;;;;;;5108118;28;19926;-68
2023/05/12 13:49:35;;;;;;;;;;;;;;;;;;5109964;28;20420;-68
2023/05/12 13:53:38;;;;;;;;;;;;;;;;;;5110992;27;19920;-69
2023/05/12 13:56:04;;;;;;;;;;;;;;;;;;5111229;28;19943;-69
2023/05/12 13:59:22;;;;;;;;;;;;;;;;;;5152696;27;20010;-69
2023/05/12 14:01:48;;;;;;;;;;;;;;;;;;5133472;27;19961;-69
2023/05/12 14:05:52;;;;;;;;;;;;;;;;;;5091136;27;19916;-69
2023/05/12 14:08:18;;;;;;;;;;;;;;;;;;5090476;28;19918;-68
2023/05/12 14:10:44;;;;;;;;;;;;;;;;;;5090793;28;19991;-69
2023/05/12 14:15:06;;;;;;;;;;;;;;;;;;5111022;27;20405;-69
2023/05/12 14:17:32;;;;;;;;;;;;;;;;;;5111146;28;19950;-69
2023/05/12 14:21:44;;;;;;;;;;;;;;;;;;5090648;27;19923;-68
2023/05/12 14:24:10;;;;;;;;;;;;;;;;;;5090905;28;19913;-69
2023/05/12 14:29:35;;;;;;;;;;;;;;;;;;5090552;27;19917;-69
2023/05/12 14:32:02;;;;;;;;;;;;;;;;;;5090898;28;20456;-69
2023/05/12 14:35:39;;;;;;;;;;;;;;;;;;5090990;27;19917;-70
2023/05/12 14:39:01;;;;;;;;;;;;;;;;;;5091084;27;19923;-69
2023/05/12 14:41:27;;;;;;;;;;;;;;;;;;5090786;28;19913;-69
2023/05/12 14:43:53;;;;;;;;;;;;;;;;;;5090672;28;19908;-69
2023/05/12 14:46:19;;;;;;;;;;;;;;;;;;5090747;28;19915;-69
2023/05/12 14:48:46;;;;;;;;;;;;;;;;;;5090200;28;19909;-69
2023/05/12 14:51:12;;;;;;;;;;;;;;;;;;5090675;28;19908;-69
2023/05/12 14:53:38;;;;;;;;;;;;;;;;;;5090863;28;20391;-69
2023/05/12 14:56:04;;;;;;;;;;;;;;;;;;5090183;28;20363;-69
2023/05/12 14:58:30;;;;;;;;;;;;;;;;;;5090708;28;19923;-69
2023/05/12 15:00:56;;;;;;;;;;;;;;;;;;5090510;28;19931;-70
2023/05/12 15:03:22;;;;;;;;;;;;;;;;;;5090052;28;19909;-69
2023/05/12 15:05:48;;;;;;;;;;;;;;;;;;5090329;28;20058;-69
2023/05/12 15:08:15;;;;;;;;;;;;;;;;;;5090270;28;20378;-69
2023/05/12 15:10:41;;;;;;;;;;;;;;;;;;5089822;28;19938;-69
2023/05/12 15:13:07;;;;;;;;;;;;;;;;;;5090319;28;19915;-69
2023/05/12 15:15:33;;;;;;;;;;;;;;;;;;5090143;28;19908;-69
2023/05/12 15:17:59;;;;;;;;;;;;;;;;;;5089766;28;19917;-70
2023/05/12 15:20:25;;;;;;;;;;;;;;;;;;5090176;28;19970;-69
2023/05/12 15:22:53;;;;;;;;;;;;;;;;;;5090060;28;19912;-71
2023/05/12 15:25:19;;;;;;;;;;;;;;;;;;5089651;28;19940;-69
2023/05/12 15:27:45;;;;;;;;;;;;;;;;;;5089925;28;20384;-69
2023/05/12 15:33:09;;;;;;;;;;;;;;;;;;5090523;28;20392;-68
2023/05/12 15:35:34;;;;;;;;;;;;;;;;;;5090900;28;20388;-69
2023/05/12 15:38:55;;;;;;;;;;;;;;;;;;5090841;28;19916;-69
2023/05/12 15:41:21;;;;;;;;;;;;;;;;;;5091045;28;20002;-68
2023/05/12 15:45:38;;;;;;;;;;;;;;;;;;5090605;27;19917;-69
2023/05/12 15:48:04;;;;;;;;;;;;;;;;;;5090893;28;19916;-68
2023/05/12 15:50:30;;;;;;;;;;;;;;;;;;5090893;28;19987;-68
2023/05/12 15:52:56;;;;;;;;;;;;;;;;;;5090395;28;19959;-68
2023/05/12 15:55:22;;;;;;;;;;;;;;;;;;5090802;28;19932;-68
2023/05/12 16:06:21;;;;;;;;;;;;;;;;;;5090688;28;19916;-68
2023/05/12 16:08:47;;;;;;;;;;;;;;;;;;5091000;28;20330;-70
2023/05/12 16:12:21;;;;;;;;;;;;;;;;;;5090997;28;19916;-68
2023/05/12 16:14:47;;;;;;;;;;;;;;;;;;5090355;28;19913;-68
2023/05/12 16:17:13;;;;;;;;;;;;;;;;;;5090932;28;19915;-68
2023/05/12 16:19:39;;;;;;;;;;;;;;;;;;5090872;28;19913;-68
2023/05/12 16:22:05;;;;;;;;;;;;;;;;;;5090362;28;19943;-69
2023/05/12 16:26:29;;;;;;;;;;;;;;;;;;5091344;28;19917;-68
2023/05/12 16:30:06;;;;;;;;;;;;;;;;;;5091105;27;19923;-68
2023/05/12 16:32:32;;;;;;;;;;;;;;;;;;5090843;28;20350;-69
2023/05/12 16:35:41;;;;;;;;;;;;;;;;;;5090687;27;19912;-68
2023/05/12 16:38:56;;;;;;;;;;;;;;;;;;5091536;27;19934;-69
2023/05/12 16:41:22;;;;;;;;;;;;;;;;;;5090476;28;19998;-68
2023/05/12 16:45:23;;;;;;;;;;;;;;;;;;5091072;27;20277;-68
2023/05/12 16:47:49;;;;;;;;;;;;;;;;;;5090887;28;19999;-68
2023/05/12 16:50:14;;;;;;;;;;;;;;;;;;5090359;28;19940;-68
2023/05/12 16:52:56;;;;;;;;;;;;;;;;;;5091748;27;20368;-68
2023/05/12 16:55:22;;;;;;;;;;;;;;;;;;5090358;28;20015;-69
2023/05/12 16:59:12;;;;;;;;;;;;;;;;;;5090646;27;19913;-68
2023/05/12 17:05:51;;;;;;;;;;;;;;;;;;5090887;27;19916;-68
2023/05/12 17:14:03;;;;;;;;;;;;;;;;;;5111536;27;19916;-68
2023/05/12 17:16:29;;;;;;;;;;;;;;;;;;5111040;28;19912;-68
2023/05/12 17:20:35;;;;;;;;;;;;;;;;;;5111322;27;19912;-68
2023/05/12 17:23:37;;;;;;;;;;;;;;;;;;5110826;27;20388;-68
2023/05/12 17:30:39;;;;;;;;;;;;;;;;;;5090697;27;19916;-68
2023/05/12 17:33:26;;;;;;;;;;;;;;;;;;5090909;27;19913;-68
2023/05/12 17:35:53;;;;;;;;;;;;;;;;;;5089431;28;20003;-68
2023/05/12 17:38:19;;;;;;;;;;;;;;;;;;5088892;28;19908;-68
2023/05/12 17:50:05;;;;;;;;;;;;;;;;;;5152314;27;19911;-68
2023/05/12 17:55:54;;;;;;;;;;;;;;;;;;5090954;27;20003;-69
2023/05/12 17:58:20;;;;;;;;;;;;;;;;;;5090650;28;20443;-69
2023/05/12 18:00:46;;;;;;;;;;;;;;;;;;5090329;28;19958;-70
2023/05/12 18:03:12;;;;;;;;;;;;;;;;;;5090859;28;19919;-70
2023/05/12 18:05:38;;;;;;;;;;;;;;;;;;5090598;28;20372;-70
2023/05/12 18:08:05;;;;;;;;;;;;;;;;;;5090613;28;19909;-69
2023/05/12 18:10:31;;;;;;;;;;;;;;;;;;5090636;28;20356;-69
2023/05/12 18:12:57;;;;;;;;;;;;;;;;;;5089962;28;19909;-69
2023/05/12 18:15:23;;;;;;;;;;;;;;;;;;5090332;28;20383;-69
2023/05/12 18:17:49;;;;;;;;;;;;;;;;;;5090447;28;20057;-69
2023/05/12 18:21:09;;;;;;;;;;;;;;;;;;5131176;27;19919;-68
2023/05/12 18:24:45;;;;;;;;;;;;;;;;;;5090816;27;19923;-70
2023/05/12 18:27:11;;;;;;;;;;;;;;;;;;5090315;28;19995;-68
2023/05/12 18:30:16;;;;;;;;;;;;;;;;;;5152445;27;20381;-68
2023/05/12 18:32:42;;;;;;;;;;;;;;;;;;5152705;27;19953;-70
2023/05/12 18:36:30;;;;;;;;;;;;;;;;;;5132018;27;19922;-69
2023/05/12 18:38:56;;;;;;;;;;;;;;;;;;5132109;28;19994;-71
2023/05/12 18:41:22;;;;;;;;;;;;;;;;;;5131359;27;20428;-69
2023/05/12 18:43:49;;;;;;;;;;;;;;;;;;5131780;27;19947;-70
2023/05/12 18:46:14;;;;;;;;;;;;;;;;;;5131698;27;19908;-69
2023/05/12 18:48:40;;;;;;;;;;;;;;;;;;5130160;28;19914;-69
2023/05/12 19:00:05;;;;;;;;;;;;;;;;;;5132074;27;19911;-70
2023/05/12 19:05:57;;;;;;;;;;;;;;;;;;5091357;27;19923;-70
2023/05/12 19:12:09;;;;;;;;;;;;;;;;;;5090988;27;20291;-70
2023/05/12 19:14:36;;;;;;;;;;;;;;;;;;5090950;28;19934;-70
2023/05/12 19:22:24;;;;;;;;;;;;;;;;;;5091123;27;19922;-70
2023/05/12 19:24:50;;;;;;;;;;;;;;;;;;5090676;28;19912;-71
2023/05/12 19:28:45;;;;;;;;;;;;;;;;;;5091199;28;19916;-70
2023/05/12 19:31:11;;;;;;;;;;;;;;;;;;5090380;28;20004;-70
2023/05/12 19:36:10;;;;;;;;;;;;;;;;;;5048527;28;20262;-70
2023/05/12 19:38:36;;;;;;;;;;;;;;;;;;5048303;28;19913;-70
2023/05/12 19:41:27;;;;;;;;;;;;;;;;;;5089048;27;19922;-69
2023/05/12 19:45:30;;;;;;;;;;;;;;;;;;5090058;27;19916;-70
2023/05/12 19:47:56;;;;;;;;;;;;;;;;;;5090935;28;20014;-69
2023/05/12 19:50:22;;;;;;;;;;;;;;;;;;5089862;28;19962;-69
2023/05/12 19:52:48;;;;;;;;;;;;;;;;;;5090118;28;19977;-69
2023/05/12 19:57:48;;;;;;;;;;;;;;;;;;5091233;27;19919;-70
2023/05/12 20:02:17;;;;;;;;;;;;;;;;;;5111684;27;20380;-70
2023/05/12 20:04:43;;;;;;;;;;;;;;;;;;5111327;28;19995;-69
2023/05/12 20:07:09;;;;;;;;;;;;;;;;;;5110897;28;20347;-71
2023/05/12 20:09:35;;;;;;;;;;;;;;;;;;5109902;28;20279;-70
2023/05/12 20:12:02;;;;;;;;;;;;;;;;;;5111181;28;19908;-69
2023/05/12 20:14:27;;;;;;;;;;;;;;;;;;5110712;28;19919;-69
2023/05/12 20:16:53;;;;;;;;;;;;;;;;;;5111142;28;19908;-68
2023/05/12 20:21:52;;;;;;;;;;;;;;;;;;5091303;27;20303;-69